Sloan, Nevada
Current Conditions -  °F | °C
As of 7:56 AM on Wednesday 22 Oct 2014 (Local Time) from KHND Reporting Station
Clear Clear  
Wind Chill: 60°   Ceiling: Unl
Heat Index: 60°   Visibility: 10mi
Dew Point: 27°   Wind: 5mph
Humidity: 29%   Direction: 170°S
Pressure: 30.05"   Gusts: NA
Location:  35.8437°N, 115.134°W
Report Text: KHND 221456Z 17004KT 10SM CLR 16/M03 A3005 RMK AO2 53027 T01551027 SLP162
Loading
Personal Weather Stations






























Interactive Weather Map
Tropical Storm Tracking
New forecast layout! Learn more

10-Day Weather Forecast

Advertisements
Track Severe Weather on mobile